Time;durP1;ratioP1;P1;durP2;ratioP2;P2;SDS_P1;SDS_P2;PMS_P1;PMS_P2;Temp;Humidity;BMP_temperature;BMP_pressure;BME280_temperature;BME280_humidity;BME280_pressure;Samples;Min_cycle;Max_cycle;Signal;HPM_P1;HPM_P2
2021/12/28 00:00:48;;;;;;;102.73;41.37;;;8.80;99.90;;;;;;5023515;28;20222;-90
2021/12/28 00:03:15;;;;;;;123.60;44.93;;;8.80;99.90;;;;;;5011433;28;20265;-86
2021/12/28 00:05:43;;;;;;;102.50;41.33;;;8.80;99.90;;;;;;5010903;28;20214;-85
2021/12/28 00:08:10;;;;;;;108.07;42.17;;;8.80;99.90;;;;;;5011255;28;20205;-83
2021/12/28 00:10:37;;;;;;;112.63;42.07;;;8.80;99.90;;;;;;5009366;28;20289;-83
2021/12/28 00:13:04;;;;;;;103.87;40.77;;;8.80;99.90;;;;;;5011047;28;20207;-85
2021/12/28 00:15:35;;;;;;;122.70;45.83;;;8.80;99.90;;;;;;5010947;28;20234;-86
2021/12/28 00:18:03;;;;;;;106.53;41.73;;;8.80;99.90;;;;;;5010750;28;20261;-84
2021/12/28 00:20:31;;;;;;;110.47;42.87;;;8.80;99.90;;;;;;5021962;28;20634;-83
2021/12/28 00:23:00;;;;;;;103.23;39.60;;;8.80;99.90;;;;;;5029781;28;20206;-92
2021/12/28 00:25:28;;;;;;;97.87;40.27;;;8.80;99.90;;;;;;5030588;28;20615;-90
2021/12/28 00:27:55;;;;;;;111.10;41.83;;;8.80;99.90;;;;;;5030196;28;20622;-83
2021/12/28 00:30:23;;;;;;;105.87;39.83;;;8.90;99.90;;;;;;5029077;28;20210;-83
2021/12/28 00:32:53;;;;;;;107.43;39.87;;;8.90;99.90;;;;;;5031380;28;20222;-84
2021/12/28 00:35:21;;;;;;;108.23;40.10;;;8.90;99.90;;;;;;5014437;28;20274;-89
2021/12/28 00:37:48;;;;;;;97.30;41.13;;;8.90;99.90;;;;;;5014446;28;20207;-91
2021/12/28 00:40:17;;;;;;;100.40;38.07;;;8.90;99.90;;;;;;5014428;28;20228;-93
2021/12/28 00:42:44;;;;;;;107.30;38.17;;;8.90;99.90;;;;;;5013933;28;20238;-91
2021/12/28 00:45:12;;;;;;;93.40;38.93;;;8.90;99.90;;;;;;5021322;28;20202;-91
2021/12/28 00:47:39;;;;;;;103.23;38.93;;;8.90;99.90;;;;;;5032740;28;20186;-85
2021/12/28 00:50:07;;;;;;;97.77;37.40;;;8.90;99.90;;;;;;5015948;28;20517;-82
2021/12/28 00:52:34;;;;;;;87.83;36.90;;;8.90;99.90;;;;;;5013177;28;20211;-89
2021/12/28 00:55:01;;;;;;;100.03;37.67;;;8.90;99.90;;;;;;5013018;28;20242;-91
2021/12/28 00:57:29;;;;;;;85.87;36.90;;;8.90;99.90;;;;;;5013807;28;20206;-92
2021/12/28 00:59:57;;;;;;;75.23;32.27;;;8.90;99.90;;;;;;5043001;22;20241;-93
2021/12/28 01:02:24;;;;;;;82.27;34.17;;;8.90;99.90;;;;;;5052809;28;20216;-92
2021/12/28 01:04:50;;;;;;;72.00;32.37;;;8.90;99.90;;;;;;5049201;28;20852;-91
2021/12/28 01:07:17;;;;;;;85.27;33.30;;;8.90;99.90;;;;;;5031296;28;20298;-91
2021/12/28 01:09:45;;;;;;;67.97;31.20;;;8.90;99.90;;;;;;5030243;28;20907;-87
2021/12/28 01:12:12;;;;;;;73.77;33.43;;;8.90;99.90;;;;;;5032593;28;20828;-85
2021/12/28 01:14:41;;;;;;;60.13;29.60;;;8.90;99.90;;;;;;5032406;28;20298;-90
2021/12/28 01:17:08;;;;;;;59.33;28.57;;;8.90;99.90;;;;;;5032325;28;20218;-88
2021/12/28 01:19:35;;;;;;;70.63;29.83;;;8.90;99.90;;;;;;5031927;28;20514;-88
2021/12/28 01:22:02;;;;;;;64.93;30.53;;;8.80;99.90;;;;;;5046895;28;20213;-91
2021/12/28 01:24:30;;;;;;;60.27;28.07;;;8.80;99.90;;;;;;5051138;28;20226;-91
2021/12/28 01:26:57;;;;;;;61.40;26.80;;;8.80;99.90;;;;;;5035185;28;20591;-84
2021/12/28 01:29:23;;;;;;;70.03;28.10;;;8.80;99.90;;;;;;5030543;28;20202;-85
2021/12/28 01:31:52;;;;;;;56.33;25.67;;;8.80;99.90;;;;;;5030903;28;20826;-88
2021/12/28 01:34:20;;;;;;;59.00;24.20;;;8.80;99.90;;;;;;5030953;28;20229;-83
2021/12/28 01:36:47;;;;;;;46.97;23.53;;;8.80;99.90;;;;;;5030945;28;20199;-91
2021/12/28 01:39:14;;;;;;;55.23;23.60;;;8.80;99.90;;;;;;5030129;28;20685;-92
2021/12/28 01:41:41;;;;;;;59.60;23.97;;;8.70;99.90;;;;;;5030358;28;20216;-90
2021/12/28 01:44:11;;;;;;;52.23;22.70;;;8.70;99.90;;;;;;5030433;28;20415;-86
2021/12/28 01:46:39;;;;;;;47.80;22.00;;;8.70;99.90;;;;;;5030906;28;20202;-83
2021/12/28 01:49:09;;;;;;;58.20;22.17;;;8.60;99.90;;;;;;5029379;28;20210;-83
2021/12/28 01:51:36;;;;;;;48.20;21.07;;;8.60;99.90;;;;;;5029812;28;20210;-93
2021/12/28 01:54:06;;;;;;;47.93;20.37;;;8.60;99.90;;;;;;5029729;28;20211;-81
2021/12/28 01:56:36;;;;;;;49.47;21.07;;;8.60;99.90;;;;;;5029836;28;20715;-83
2021/12/28 01:59:04;;;;;;;40.30;20.30;;;8.60;99.90;;;;;;5029350;28;20257;-83
2021/12/28 02:01:32;;;;;;;53.47;20.63;;;8.60;99.90;;;;;;5027283;28;20941;-83
2021/12/28 02:03:59;;;;;;;53.03;20.87;;;8.60;99.90;;;;;;5027563;28;20202;-82
2021/12/28 02:06:27;;;;;;;61.70;21.33;;;8.60;99.90;;;;;;5026903;28;20206;-90
2021/12/28 02:08:55;;;;;;;52.47;21.20;;;8.60;99.90;;;;;;5025993;28;20202;-85
2021/12/28 02:11:23;;;;;;;44.20;19.67;;;8.60;99.90;;;;;;5028048;28;20871;-89
2021/12/28 02:13:50;;;;;;;43.20;20.30;;;8.60;99.90;;;;;;5028104;28;20206;-86
2021/12/28 02:16:17;;;;;;;60.93;20.73;;;8.60;99.90;;;;;;5027011;28;20218;-88
2021/12/28 02:18:44;;;;;;;47.80;19.03;;;8.60;99.90;;;;;;5025907;28;20207;-81
2021/12/28 02:21:12;;;;;;;50.63;19.93;;;8.60;99.90;;;;;;5026235;28;20210;-83
2021/12/28 02:23:39;;;;;;;48.37;19.37;;;8.60;99.90;;;;;;5025755;28;20210;-81
2021/12/28 02:26:06;;;;;;;44.90;18.17;;;8.60;99.90;;;;;;5026643;28;20211;-81
2021/12/28 02:28:33;;;;;;;46.20;18.17;;;8.60;99.90;;;;;;5026436;28;20198;-82
2021/12/28 02:31:02;;;;;;;41.80;18.07;;;8.60;99.90;;;;;;5026391;28;20207;-81
2021/12/28 02:33:29;;;;;;;40.77;17.63;;;8.60;99.90;;;;;;5032670;28;20225;-82
2021/12/28 02:35:58;;;;;;;51.40;16.63;;;8.50;99.90;;;;;;5045941;28;20373;-83
2021/12/28 02:38:26;;;;;;;55.43;17.97;;;8.50;99.90;;;;;;5044908;28;20201;-86
2021/12/28 02:40:53;;;;;;;46.50;18.17;;;8.60;99.90;;;;;;5037263;28;20550;-81
2021/12/28 02:43:20;;;;;;;38.13;15.80;;;8.50;99.90;;;;;;5025648;28;20671;-80
2021/12/28 02:45:52;;;;;;;50.73;17.57;;;8.50;99.90;;;;;;5038121;28;20225;-81
2021/12/28 02:48:19;;;;;;;43.20;14.83;;;8.50;99.90;;;;;;5045580;28;20213;-81
2021/12/28 02:50:48;;;;;;;38.83;14.70;;;8.50;99.90;;;;;;5035308;28;20203;-79
2021/12/28 02:53:18;;;;;;;49.13;14.70;;;8.50;99.90;;;;;;5025791;28;20641;-82
2021/12/28 02:55:49;;;;;;;48.27;15.87;;;8.50;99.90;;;;;;5026181;28;20316;-80
2021/12/28 02:58:25;;;;;;;39.07;14.37;;;8.50;99.90;;;;;;5026899;28;20213;-80
2021/12/28 03:00:54;;;;;;;42.57;13.47;;;8.40;99.90;;;;;;5027061;28;20234;-81
2021/12/28 03:03:23;;;;;;;38.50;14.03;;;8.40;99.90;;;;;;5026053;28;20194;-84
2021/12/28 03:05:52;;;;;;;40.20;13.67;;;8.50;99.90;;;;;;5041720;28;20245;-81
2021/12/28 03:08:20;;;;;;;46.97;13.80;;;8.50;99.90;;;;;;5046178;28;20606;-79
2021/12/28 03:10:50;;;;;;;43.47;12.93;;;8.50;99.90;;;;;;5038857;28;20206;-89
2021/12/28 03:13:19;;;;;;;55.27;14.77;;;8.50;99.90;;;;;;5026883;28;20195;-80
2021/12/28 03:15:45;;;;;;;43.30;13.47;;;8.50;99.90;;;;;;5027190;28;21022;-83
2021/12/28 03:18:12;;;;;;;43.60;13.33;;;8.50;99.90;;;;;;5027066;28;20206;-81
2021/12/28 03:20:39;;;;;;;44.37;12.73;;;8.50;99.90;;;;;;5026172;28;20237;-79
2021/12/28 03:23:06;;;;;;;47.67;13.17;;;8.40;99.90;;;;;;5028955;28;20210;-79
2021/12/28 03:25:33;;;;;;;48.47;12.90;;;8.40;99.90;;;;;;5046487;28;20924;-82
2021/12/28 03:28:02;;;;;;;48.77;14.20;;;8.50;99.90;;;;;;5046508;28;20195;-81
2021/12/28 03:30:29;;;;;;;43.03;13.37;;;8.50;99.90;;;;;;5046496;28;20878;-82
2021/12/28 03:32:56;;;;;;;40.50;13.97;;;8.50;99.90;;;;;;5046699;28;20214;-85
2021/12/28 03:35:23;;;;;;;34.30;12.87;;;8.50;99.90;;;;;;5046687;28;20233;-83
2021/12/28 03:37:50;;;;;;;41.20;12.77;;;8.50;99.90;;;;;;5046744;28;20610;-88
2021/12/28 03:40:18;;;;;;;37.07;11.43;;;8.50;99.90;;;;;;5044033;28;20214;-83
2021/12/28 03:42:45;;;;;;;43.80;12.50;;;8.50;99.90;;;;;;5029913;28;20210;-91
2021/12/28 03:45:14;;;;;;;46.33;14.33;;;8.50;99.90;;;;;;5034468;28;20214;-90
2021/12/28 03:47:41;;;;;;;44.57;12.17;;;8.60;99.90;;;;;;5033667;28;20583;-91
2021/12/28 03:50:10;;;;;;;40.87;11.37;;;8.60;99.90;;;;;;5034051;28;20205;-87
2021/12/28 03:52:37;;;;;;;45.23;12.83;;;8.60;99.90;;;;;;5032432;28;20603;-90
2021/12/28 03:55:05;;;;;;;38.67;10.27;;;8.60;99.90;;;;;;5032697;28;20229;-89
2021/12/28 03:57:33;;;;;;;40.87;11.33;;;8.60;99.90;;;;;;5032326;28;20211;-91
2021/12/28 04:00:00;;;;;;;47.83;11.93;;;8.70;99.90;;;;;;5038928;28;20219;-91
2021/12/28 04:02:28;;;;;;;35.30;10.40;;;8.70;99.90;;;;;;5046158;28;20203;-86
2021/12/28 04:04:55;;;;;;;41.47;11.50;;;8.70;99.90;;;;;;5057535;28;20205;-85
2021/12/28 04:07:21;;;;;;;35.00;11.13;;;8.70;99.90;;;;;;5065361;28;20198;-87
2021/12/28 04:10:01;;;;;;;36.70;9.77;;;8.70;99.90;;;;;;5042216;28;20198;-84
2021/12/28 04:12:28;;;;;;;39.80;9.93;;;8.80;99.90;;;;;;5041978;28;20205;-83
2021/12/28 04:14:55;;;;;;;50.90;10.83;;;8.80;99.90;;;;;;5035628;28;20226;-80
2021/12/28 04:17:22;;;;;;;51.27;10.53;;;8.80;99.90;;;;;;5052513;28;20213;-85
2021/12/28 04:19:50;;;;;;;47.47;10.60;;;8.80;99.90;;;;;;5049753;28;20224;-88
2021/12/28 04:22:17;;;;;;;35.90;9.47;;;8.80;99.90;;;;;;5038408;28;20215;-83
2021/12/28 04:24:44;;;;;;;43.47;12.23;;;8.90;99.90;;;;;;5030100;28;20217;-80
2021/12/28 04:27:11;;;;;;;34.07;10.10;;;8.90;99.90;;;;;;5031991;28;20197;-89
2021/12/28 04:29:38;;;;;;;37.33;9.83;;;8.90;99.90;;;;;;5030350;28;20203;-83
2021/12/28 04:32:06;;;;;;;36.30;10.23;;;8.90;99.90;;;;;;5030365;28;20797;-81
2021/12/28 04:34:33;;;;;;;36.70;11.13;;;8.90;99.90;;;;;;5029985;28;20870;-86
2021/12/28 04:37:01;;;;;;;42.13;11.23;;;8.90;99.90;;;;;;5030372;28;20238;-83
2021/12/28 04:39:28;;;;;;;39.97;11.63;;;8.90;99.90;;;;;;5030382;28;20207;-88
2021/12/28 04:41:54;;;;;;;40.13;11.87;;;8.90;99.90;;;;;;5030931;28;20797;-83
2021/12/28 04:44:24;;;;;;;51.00;11.93;;;8.90;99.90;;;;;;5031125;28;20206;-82
2021/12/28 04:46:52;;;;;;;33.90;9.87;;;8.90;99.90;;;;;;5050953;28;20198;-84
2021/12/28 04:49:21;;;;;;;42.07;12.07;;;8.90;99.90;;;;;;5050761;28;20204;-84
2021/12/28 04:51:48;;;;;;;37.00;11.50;;;8.90;99.90;;;;;;5048246;28;20253;-85
2021/12/28 04:54:16;;;;;;;47.40;12.30;;;8.90;99.90;;;;;;5045494;28;20256;-84
2021/12/28 04:56:43;;;;;;;44.23;12.03;;;8.90;99.90;;;;;;5029862;28;20962;-81
2021/12/28 04:59:10;;;;;;;43.27;12.43;;;8.90;99.90;;;;;;5029785;28;20631;-82
2021/12/28 05:01:37;;;;;;;46.97;13.93;;;8.90;99.90;;;;;;5029853;28;20209;-85
2021/12/28 05:04:05;;;;;;;42.83;12.47;;;8.90;99.90;;;;;;5030366;28;20257;-83
2021/12/28 05:06:32;;;;;;;39.50;11.53;;;8.90;99.90;;;;;;5030207;28;20770;-83
2021/12/28 05:08:59;;;;;;;41.50;12.03;;;8.90;99.90;;;;;;5031399;28;20296;-85
2021/12/28 05:11:28;;;;;;;32.90;11.87;;;8.90;99.90;;;;;;5028862;28;20902;-82
2021/12/28 05:13:55;;;;;;;37.00;12.03;;;8.90;99.90;;;;;;5026773;28;20203;-82
2021/12/28 05:16:22;;;;;;;31.77;11.43;;;8.90;99.90;;;;;;5031536;28;20215;-89
2021/12/28 05:18:49;;;;;;;49.90;14.00;;;8.90;99.90;;;;;;5032945;28;20214;-88
2021/12/28 05:21:16;;;;;;;41.63;13.57;;;8.90;99.90;;;;;;5033244;28;20199;-88
2021/12/28 05:23:43;;;;;;;45.93;13.63;;;8.90;99.90;;;;;;5032872;28;20214;-88
2021/12/28 05:26:09;;;;;;;45.60;13.57;;;8.90;99.90;;;;;;5033005;28;20195;-89
2021/12/28 05:28:38;;;;;;;42.07;13.70;;;8.90;99.90;;;;;;5032206;28;20202;-92
2021/12/28 05:31:04;;;;;;;39.60;12.70;;;8.90;99.90;;;;;;5032474;28;20199;-91
2021/12/28 05:33:31;;;;;;;54.63;15.50;;;8.90;99.90;;;;;;5031659;28;20223;-91
2021/12/28 05:35:58;;;;;;;40.87;13.13;;;8.90;99.90;;;;;;5031930;28;20594;-92
2021/12/28 05:38:25;;;;;;;43.33;12.23;;;8.90;99.90;;;;;;5031690;28;20212;-91
2021/12/28 05:40:52;;;;;;;37.87;12.43;;;8.90;99.90;;;;;;5032225;28;20217;-88
2021/12/28 05:43:19;;;;;;;38.73;13.40;;;8.90;99.90;;;;;;5032082;28;20198;-84
2021/12/28 05:45:47;;;;;;;40.33;11.67;;;8.90;99.90;;;;;;5036943;28;20216;-81
2021/12/28 05:48:13;;;;;;;37.47;11.40;;;8.90;99.90;;;;;;5050610;28;20216;-82
2021/12/28 05:50:40;;;;;;;40.47;11.23;;;8.90;99.90;;;;;;5051562;28;20361;-91
2021/12/28 05:53:07;;;;;;;51.63;11.47;;;8.90;99.90;;;;;;5036899;28;20225;-89
2021/12/28 05:55:34;;;;;;;31.30;9.13;;;8.90;99.90;;;;;;5030719;28;20222;-90
2021/12/28 05:58:01;;;;;;;39.83;10.10;;;8.90;99.90;;;;;;5031043;28;20215;-88
2021/12/28 06:00:29;;;;;;;39.27;10.70;;;8.90;99.90;;;;;;5030067;28;20339;-79
2021/12/28 06:02:58;;;;;;;40.90;10.80;;;8.90;99.90;;;;;;5044117;28;20216;-84
2021/12/28 06:05:25;;;;;;;38.33;11.10;;;8.90;99.90;;;;;;5048769;28;20212;-81
2021/12/28 06:07:52;;;;;;;33.17;10.83;;;8.90;99.90;;;;;;5049855;28;20202;-90
2021/12/28 06:10:19;;;;;;;33.03;10.13;;;8.90;99.90;;;;;;5049677;28;20217;-82
2021/12/28 06:12:46;;;;;;;34.77;11.17;;;8.90;99.90;;;;;;5051401;28;20700;-84
2021/12/28 06:15:13;;;;;;;40.90;11.40;;;9.00;99.90;;;;;;5051437;28;20201;-90
2021/12/28 06:17:40;;;;;;;29.27;12.57;;;9.00;99.90;;;;;;5044044;28;20214;-90
2021/12/28 06:20:10;;;;;;;34.50;11.23;;;9.00;99.90;;;;;;5030296;28;20621;-89
2021/12/28 06:22:37;;;;;;;45.33;13.17;;;9.00;99.90;;;;;;5030410;28;20269;-90
2021/12/28 06:25:07;;;;;;;42.17;11.47;;;9.00;99.90;;;;;;5030240;28;20194;-88
2021/12/28 06:27:36;;;;;;;29.37;11.97;;;9.00;99.90;;;;;;5029348;28;20209;-87
2021/12/28 06:30:03;;;;;;;35.57;12.20;;;9.00;99.90;;;;;;5028561;28;20225;-89
2021/12/28 06:32:30;;;;;;;41.80;12.47;;;9.10;99.90;;;;;;5027866;28;20770;-85
2021/12/28 06:34:57;;;;;;;30.07;12.20;;;9.00;99.90;;;;;;5028336;28;20202;-83
2021/12/28 06:37:25;;;;;;;28.57;11.53;;;9.10;99.90;;;;;;5028029;28;20597;-85
2021/12/28 06:39:52;;;;;;;30.07;11.77;;;9.00;99.90;;;;;;5029362;28;20621;-81
2021/12/28 06:42:19;;;;;;;34.07;12.53;;;9.10;99.90;;;;;;5029012;28;20203;-82
2021/12/28 06:44:47;;;;;;;27.97;12.53;;;9.10;99.90;;;;;;5041783;28;20589;-86
2021/12/28 06:47:14;;;;;;;31.27;11.77;;;9.10;99.90;;;;;;5045786;28;20205;-87
2021/12/28 06:49:41;;;;;;;32.70;12.90;;;9.10;99.90;;;;;;5050167;28;20222;-90
2021/12/28 06:52:08;;;;;;;31.33;11.40;;;9.10;99.90;;;;;;5051803;28;20212;-92
2021/12/28 06:54:39;;;;;;;31.37;12.90;;;9.10;99.90;;;;;;5051347;28;20209;-92
2021/12/28 06:57:07;;;;;;;26.73;13.23;;;9.10;99.90;;;;;;5046865;28;20268;-85
2021/12/28 06:59:35;;;;;;;27.83;12.67;;;9.10;99.90;;;;;;5031688;28;20241;-90
2021/12/28 07:02:02;;;;;;;32.43;13.47;;;9.10;99.90;;;;;;5030978;28;20210;-93
2021/12/28 07:04:29;;;;;;;33.43;15.67;;;9.10;99.90;;;;;;5031131;28;20582;-91
2021/12/28 07:06:55;;;;;;;29.17;14.13;;;9.10;99.90;;;;;;5031968;28;20507;-88
2021/12/28 07:09:22;;;;;;;33.87;14.90;;;9.20;99.90;;;;;;5031425;28;20210;-83
2021/12/28 07:11:50;;;;;;;30.97;14.73;;;9.10;99.90;;;;;;5029967;28;20212;-93
2021/12/28 07:14:17;;;;;;;32.30;14.97;;;9.20;99.90;;;;;;5029907;28;20199;-81
2021/12/28 07:16:44;;;;;;;27.80;14.97;;;9.20;99.90;;;;;;5030846;28;20233;-88
2021/12/28 07:19:11;;;;;;;29.67;16.20;;;9.20;99.90;;;;;;5028784;28;20209;-80
2021/12/28 07:21:38;;;;;;;29.13;14.63;;;9.20;99.90;;;;;;5028563;28;20253;-88
2021/12/28 07:24:06;;;;;;;32.60;14.40;;;9.20;99.90;;;;;;5030875;28;20206;-84
2021/12/28 07:26:33;;;;;;;26.57;14.00;;;9.20;99.90;;;;;;5030920;28;20209;-91
2021/12/28 07:29:02;;;;;;;27.77;14.67;;;9.20;99.90;;;;;;5030744;28;20207;-85
2021/12/28 07:31:29;;;;;;;30.90;13.90;;;9.20;99.90;;;;;;5030291;28;20222;-89
2021/12/28 07:33:56;;;;;;;28.43;13.77;;;9.20;99.90;;;;;;5031084;28;20595;-90
2021/12/28 07:36:22;;;;;;;26.67;13.60;;;9.20;99.90;;;;;;5030921;28;20222;-87
2021/12/28 07:38:49;;;;;;;25.83;13.10;;;9.20;99.90;;;;;;5034445;28;20199;-87
2021/12/28 07:41:17;;;;;;;28.20;13.90;;;9.20;99.90;;;;;;5034135;28;20595;-86
2021/12/28 07:43:44;;;;;;;29.27;13.20;;;9.20;99.90;;;;;;5035609;28;20198;-88
2021/12/28 07:46:12;;;;;;;29.83;14.40;;;9.20;99.90;;;;;;5035299;28;20209;-93
2021/12/28 07:48:40;;;;;;;27.50;15.30;;;9.20;99.90;;;;;;5034214;28;20190;-85
2021/12/28 07:51:07;;;;;;;24.97;14.10;;;9.20;99.90;;;;;;5034623;28;20877;-89
2021/12/28 07:53:34;;;;;;;21.17;14.13;;;9.30;99.90;;;;;;5033286;28;20809;-94
2021/12/28 07:56:01;;;;;;;28.63;15.60;;;9.20;99.90;;;;;;5054426;28;20206;-81
2021/12/28 07:58:28;;;;;;;29.90;16.43;;;9.20;99.90;;;;;;5052170;28;20205;-82
2021/12/28 08:00:55;;;;;;;27.13;16.07;;;9.30;99.90;;;;;;5034387;28;20643;-84
2021/12/28 08:03:24;;;;;;;33.33;17.43;;;9.30;99.90;;;;;;5031391;28;20203;-86
2021/12/28 08:05:53;;;;;;;35.07;18.23;;;9.30;99.90;;;;;;5031244;28;20293;-82
2021/12/28 08:08:19;;;;;;;33.63;17.63;;;9.30;99.90;;;;;;5031782;28;20218;-82
2021/12/28 08:10:47;;;;;;;37.53;19.77;;;9.30;99.90;;;;;;5032685;28;20205;-83
2021/12/28 08:13:14;;;;;;;35.00;18.83;;;9.30;99.90;;;;;;5033193;28;20207;-93
2021/12/28 08:15:41;;;;;;;35.47;19.23;;;9.30;99.90;;;;;;5032991;28;20221;-82
2021/12/28 08:18:09;;;;;;;41.30;19.03;;;9.30;99.90;;;;;;5031581;28;20218;-92
2021/12/28 08:20:38;;;;;;;38.70;20.00;;;9.30;99.90;;;;;;5029898;28;20272;-92
2021/12/28 08:23:05;;;;;;;34.70;18.20;;;9.30;99.90;;;;;;5034778;28;20209;-92
2021/12/28 08:25:32;;;;;;;34.47;18.17;;;9.30;99.90;;;;;;5033786;28;20207;-93
2021/12/28 08:28:01;;;;;;;34.13;17.70;;;9.30;99.90;;;;;;5034101;28;20610;-91
2021/12/28 08:30:27;;;;;;;36.47;18.67;;;9.30;99.90;;;;;;5036272;28;20206;-86
2021/12/28 08:32:55;;;;;;;36.63;18.10;;;9.40;99.90;;;;;;5035073;28;20218;-91
2021/12/28 08:35:25;;;;;;;30.47;17.90;;;9.40;99.90;;;;;;5033146;28;20199;-80
2021/12/28 08:37:53;;;;;;;34.43;18.47;;;9.40;99.90;;;;;;5035003;28;20245;-93
2021/12/28 08:40:21;;;;;;;31.63;17.43;;;9.40;99.90;;;;;;5034091;28;20206;-86
2021/12/28 08:42:48;;;;;;;32.00;17.43;;;9.40;99.90;;;;;;5031895;28;20218;-89
2021/12/28 08:45:15;;;;;;;33.87;17.67;;;9.40;99.90;;;;;;5039500;28;20205;-90
2021/12/28 08:47:46;;;;;;;27.47;16.37;;;9.40;99.90;;;;;;5032540;28;20213;-87
2021/12/28 08:50:13;;;;;;;31.83;16.83;;;9.40;99.90;;;;;;5032192;28;20206;-92
2021/12/28 08:59:36;;;;;;;22.57;14.83;;;9.50;99.90;;;;;;5034399;28;20217;-95
2021/12/28 09:02:03;;;;;;;26.13;14.33;;;9.40;99.90;;;;;;5034085;28;20255;-95
2021/12/28 09:04:30;;;;;;;25.40;14.53;;;9.50;99.90;;;;;;5035041;28;20210;-95
2021/12/28 09:06:58;;;;;;;24.93;15.40;;;9.50;99.90;;;;;;5033614;28;20210;-89
2021/12/28 09:09:28;;;;;;;26.33;15.77;;;9.50;99.90;;;;;;5047949;22;20230;-86
2021/12/28 09:12:09;;;;;;;32.30;15.80;;;9.50;99.90;;;;;;5084095;22;20612;-81
2021/12/28 09:14:39;;;;;;;29.03;15.30;;;9.50;99.90;;;;;;5052357;28;20590;-84
2021/12/28 09:17:06;;;;;;;24.27;14.57;;;9.50;99.90;;;;;;5051715;28;20295;-92
2021/12/28 09:19:33;;;;;;;28.37;16.47;;;9.50;99.90;;;;;;5052210;28;20206;-87
2021/12/28 09:22:00;;;;;;;27.37;16.03;;;9.50;99.90;;;;;;5051729;28;20206;-90
2021/12/28 09:24:27;;;;;;;24.13;14.57;;;9.60;99.90;;;;;;5039155;28;20484;-84
2021/12/28 09:26:54;;;;;;;25.30;15.27;;;9.60;99.90;;;;;;5031247;28;20209;-91
2021/12/28 09:29:21;;;;;;;25.53;15.10;;;9.60;99.90;;;;;;5034500;28;20206;-95
2021/12/28 09:31:50;;;;;;;26.50;15.27;;;9.60;99.90;;;;;;5033426;28;20229;-92
2021/12/28 09:34:16;;;;;;;26.77;16.33;;;9.60;99.90;;;;;;5044046;28;20202;-88
2021/12/28 09:36:43;;;;;;;27.37;15.87;;;9.60;99.90;;;;;;5052731;28;20229;-91
2021/12/28 09:39:10;;;;;;;26.10;15.33;;;9.60;99.90;;;;;;5053257;28;20209;-92
2021/12/28 09:41:37;;;;;;;25.30;15.37;;;9.60;99.90;;;;;;5052465;28;20205;-84
2021/12/28 09:44:04;;;;;;;23.70;14.70;;;9.60;99.90;;;;;;5054025;28;20225;-92
2021/12/28 09:46:31;;;;;;;23.47;13.60;;;9.60;99.90;;;;;;5052680;28;20202;-90
2021/12/28 09:49:01;;;;;;;24.23;15.07;;;9.70;99.90;;;;;;5049904;28;20206;-93
2021/12/28 09:51:28;;;;;;;25.83;16.03;;;9.70;99.90;;;;;;5051965;28;20946;-88
2021/12/28 09:53:56;;;;;;;22.33;15.37;;;9.70;99.90;;;;;;5052415;28;20202;-91
2021/12/28 09:56:22;;;;;;;30.13;18.33;;;9.70;99.90;;;;;;5054269;28;20198;-91
2021/12/28 09:58:49;;;;;;;29.10;19.07;;;9.70;99.90;;;;;;5053197;28;20190;-93
2021/12/28 10:01:16;;;;;;;31.80;19.97;;;9.80;99.90;;;;;;5034134;28;20206;-90
2021/12/28 10:03:43;;;;;;;33.60;20.60;;;9.80;99.90;;;;;;5031605;28;20214;-90
2021/12/28 10:06:20;;;;;;;37.60;21.00;;;9.90;99.90;;;;;;5031149;28;20203;-89
2021/12/28 10:08:47;;;;;;;31.00;20.60;;;9.90;99.90;;;;;;5048713;28;20508;-92
2021/12/28 10:11:14;;;;;;;32.37;20.10;;;9.90;99.90;;;;;;5051059;28;20252;-84
2021/12/28 10:13:41;;;;;;;30.07;19.13;;;9.90;99.90;;;;;;5050018;28;20524;-83
2021/12/28 10:16:08;;;;;;;32.97;20.53;;;10.00;99.90;;;;;;5042783;28;20210;-82
2021/12/28 10:18:34;;;;;;;31.67;19.73;;;10.00;99.90;;;;;;5031039;28;20443;-81
2021/12/28 10:21:04;;;;;;;31.70;20.23;;;10.00;99.90;;;;;;5029923;28;20203;-92
2021/12/28 10:23:34;;;;;;;31.80;20.53;;;10.00;99.90;;;;;;5031145;28;20206;-91
2021/12/28 10:26:02;;;;;;;28.80;19.53;;;10.00;99.90;;;;;;5031772;28;20194;-92
2021/12/28 10:28:33;;;;;;;29.67;18.73;;;10.00;99.90;;;;;;5030536;28;20195;-90
2021/12/28 10:31:04;;;;;;;27.50;18.63;;;10.00;99.90;;;;;;5037826;22;20213;-87
2021/12/28 10:33:36;;;;;;;26.10;18.50;;;10.10;99.90;;;;;;5023159;28;20227;-89
2021/12/28 10:36:06;;;;;;;27.67;18.33;;;10.10;99.90;;;;;;5007775;28;20211;-87
2021/12/28 10:38:37;;;;;;;25.70;18.27;;;10.10;99.90;;;;;;5006977;28;20231;-84
2021/12/28 10:41:08;;;;;;;22.77;15.87;;;10.10;99.90;;;;;;5008089;28;20257;-83
2021/12/28 10:43:37;;;;;;;22.60;15.67;;;10.10;99.90;;;;;;5008501;28;20226;-83
2021/12/28 10:46:06;;;;;;;20.77;15.07;;;10.10;99.90;;;;;;5015733;28;20207;-84
2021/12/28 10:48:37;;;;;;;19.30;14.47;;;10.10;99.90;;;;;;5007076;28;20221;-84
2021/12/28 10:51:08;;;;;;;20.40;13.90;;;10.20;99.90;;;;;;5006890;28;20505;-85
2021/12/28 10:53:54;;;;;;;12.07;9.80;;;10.10;99.90;;;;;;5007366;28;20258;-84
2021/12/28 10:56:21;;;;;;;14.23;10.67;;;10.20;99.90;;;;;;5006480;28;20214;-85
2021/12/28 10:58:50;;;;;;;13.87;10.80;;;10.20;99.90;;;;;;5007567;28;20250;-82
2021/12/28 11:01:19;;;;;;;13.97;10.23;;;10.20;99.90;;;;;;5009934;28;20202;-85
2021/12/28 11:03:48;;;;;;;14.90;12.37;;;10.20;99.90;;;;;;5010067;28;20207;-83
2021/12/28 11:06:18;;;;;;;13.90;11.27;;;10.20;99.90;;;;;;5030892;28;20252;-86
2021/12/28 11:08:51;;;;;;;14.43;10.47;;;10.20;99.90;;;;;;5031203;28;20207;-90
2021/12/28 11:11:21;;;;;;;7.40;5.90;;;10.30;99.90;;;;;;5011834;28;20211;-88
2021/12/28 11:13:48;;;;;;;6.60;6.00;;;10.30;99.90;;;;;;5014856;28;20234;-85
2021/12/28 11:16:18;;;;;;;5.17;4.47;;;10.30;99.90;;;;;;5014937;28;20203;-85
2021/12/28 11:18:47;;;;;;;5.63;3.90;;;10.30;99.90;;;;;;5014261;28;20859;-94
2021/12/28 11:21:18;;;;;;;4.80;3.47;;;10.30;99.90;;;;;;5018550;28;20293;-86
2021/12/28 11:23:48;;;;;;;6.57;2.40;;;10.20;99.90;;;;;;5032749;28;20625;-89
2021/12/28 11:26:22;;;;;;;4.87;2.30;;;10.20;99.90;;;;;;5017651;28;20588;-94
2021/12/28 11:28:59;;;;;;;6.60;2.47;;;10.20;99.90;;;;;;5021091;28;20210;-89
2021/12/28 11:31:28;;;;;;;8.53;2.20;;;10.20;99.90;;;;;;5035206;28;20236;-88
2021/12/28 11:33:59;;;;;;;9.00;1.90;;;10.20;99.90;;;;;;5036610;28;20316;-88
2021/12/28 11:36:30;;;;;;;4.50;2.17;;;10.20;99.90;;;;;;5036981;28;20313;-89
2021/12/28 11:38:59;;;;;;;9.73;1.90;;;10.10;99.90;;;;;;5022176;28;20314;-91
2021/12/28 11:41:26;;;;;;;9.93;2.00;;;10.20;99.90;;;;;;5020093;28;20447;-90
2021/12/28 11:43:55;;;;;;;6.50;2.30;;;10.20;99.90;;;;;;5036042;28;20206;-90
2021/12/28 11:46:23;;;;;;;6.27;2.67;;;10.20;99.90;;;;;;5032836;28;20214;-87
2021/12/28 11:48:50;;;;;;;8.53;2.43;;;10.20;99.90;;;;;;5034523;28;20197;-92
2021/12/28 11:51:20;;;;;;;11.90;2.20;;;10.10;99.90;;;;;;5035895;28;20206;-88
2021/12/28 11:53:47;;;;;;;11.67;2.20;;;10.20;99.90;;;;;;5035110;28;20213;-90
2021/12/28 11:56:19;;;;;;;12.00;2.40;;;10.10;99.90;;;;;;5035542;28;20197;-91
2021/12/28 11:59:18;;;;;;;16.60;3.50;;;10.10;99.90;;;;;;5029564;28;20230;-91
2021/12/28 12:02:03;;;;;;;8.30;2.23;;;10.10;99.90;;;;;;5015658;28;20204;-87
2021/12/28 12:04:59;;;;;;;9.47;1.97;;;10.10;99.90;;;;;;5023607;28;20590;-93
2021/12/28 12:07:37;;;;;;;15.30;2.53;;;10.00;99.90;;;;;;5036318;28;20199;-88
2021/12/28 12:10:31;;;;;;;15.33;2.77;;;10.00;99.90;;;;;;5036716;28;20210;-92
2021/12/28 12:13:14;;;;;;;12.97;2.70;;;9.90;99.90;;;;;;5036318;28;20191;-93
2021/12/28 12:15:43;;;;;;;19.87;3.63;;;9.90;99.90;;;;;;5013120;28;20211;-91
2021/12/28 12:18:13;;;;;;;24.53;7.17;;;9.80;99.90;;;;;;5025616;28;20238;-91
2021/12/28 12:20:45;;;;;;;34.80;5.57;;;9.80;99.90;;;;;;5034235;28;20454;-89
2021/12/28 12:23:19;;;;;;;33.87;5.57;;;9.80;99.90;;;;;;5030425;28;20207;-90
2021/12/28 12:25:57;;;;;;;40.10;7.20;;;9.80;99.90;;;;;;5033925;28;20666;-90
2021/12/28 12:28:45;;;;;;;37.00;8.57;;;9.80;99.90;;;;;;5034433;28;20291;-89
2021/12/28 12:31:20;;;;;;;39.07;7.03;;;9.70;99.90;;;;;;5014476;28;20235;-93
2021/12/28 12:33:47;;;;;;;35.17;5.53;;;9.70;99.90;;;;;;5014358;28;20194;-86
2021/12/28 12:36:21;;;;;;;46.23;6.57;;;9.70;99.90;;;;;;5025655;28;20219;-84
2021/12/28 12:38:48;;;;;;;32.50;5.93;;;9.70;99.90;;;;;;5032567;28;20515;-88
2021/12/28 12:41:19;;;;;;;33.27;5.93;;;9.70;99.90;;;;;;5032020;28;20206;-83
2021/12/28 12:43:51;;;;;;;32.40;7.00;;;9.70;99.90;;;;;;5033142;28;20226;-90
2021/12/28 12:46:30;;;;;;;40.90;5.73;;;9.70;99.90;;;;;;5019721;28;20203;-85
2021/12/28 12:49:04;;;;;;;34.50;5.60;;;9.70;99.90;;;;;;5012286;28;20191;-84